Time;durP1;ratioP1;P1;durP2;ratioP2;P2;SDS_P1;SDS_P2;PMS_P1;PMS_P2;Temp;Humidity;BMP_temperature;BMP_pressure;BME280_temperature;BME280_humidity;BME280_pressure;Samples;Min_cycle;Max_cycle;Signal;HPM_P1;HPM_P2
2023/10/02 00:01:41;;;;;;;16.50;7.40;;;14.10;99.90;;;;;;6157592;22;92827;-74
2023/10/02 00:03:48;;;;;;;18.50;8.32;;;14.10;99.90;;;;;;6147288;22;93884;-73
2023/10/02 00:06:17;;;;;;;16.08;6.82;;;14.10;99.90;;;;;;6146863;22;92901;-72
2023/10/02 00:08:48;;;;;;;19.05;7.75;;;14.10;99.90;;;;;;6171280;22;91789;-73
2023/10/02 00:14:20;;;;;;;14.95;6.80;;;14.00;99.90;;;;;;6147267;22;93401;-73
2023/10/02 00:17:00;;;;;;;18.45;7.18;;;14.00;99.90;;;;;;6146531;22;93394;-74
2023/10/02 00:19:38;;;;;;;17.75;7.20;;;14.00;99.90;;;;;;6161174;22;92442;-73
2023/10/02 00:22:09;;;;;;;16.52;6.97;;;14.00;99.90;;;;;;6168918;22;96818;-73
2023/10/02 00:24:40;;;;;;;16.35;6.53;;;13.90;99.90;;;;;;6145756;22;92855;-73
2023/10/02 00:27:10;;;;;;;12.13;6.10;;;13.90;99.90;;;;;;6148789;22;92385;-73
2023/10/02 00:29:51;;;;;;;14.70;6.90;;;13.90;99.90;;;;;;6148956;22;92596;-73
2023/10/02 00:32:19;;;;;;;16.55;7.00;;;13.90;99.90;;;;;;6149526;22;97435;-73
2023/10/02 00:34:46;;;;;;;12.95;6.47;;;13.80;99.90;;;;;;6149532;22;92743;-73
2023/10/02 00:37:15;;;;;;;15.38;6.75;;;13.80;99.90;;;;;;6146613;22;92738;-73
2023/10/02 00:39:41;;;;;;;16.25;7.07;;;13.80;99.90;;;;;;6152035;22;92672;-73
2023/10/02 00:44:55;;;;;;;15.73;6.85;;;13.80;99.90;;;;;;6146270;22;93603;-73
2023/10/02 00:47:44;;;;;;;16.48;7.55;;;13.80;99.90;;;;;;6147730;22;92473;-73
2023/10/02 00:50:21;;;;;;;17.42;6.90;;;13.80;99.90;;;;;;6177605;22;92181;-73
2023/10/02 00:52:56;;;;;;;17.63;6.55;;;13.70;99.90;;;;;;6151007;22;93720;-73
2023/10/02 00:55:30;;;;;;;19.52;6.78;;;13.70;99.90;;;;;;6146265;22;93300;-74
2023/10/02 00:57:56;;;;;;;13.82;6.38;;;13.70;99.90;;;;;;6162283;22;92530;-73
2023/10/02 01:00:35;;;;;;;15.88;6.72;;;13.70;99.90;;;;;;6168318;22;91776;-73
2023/10/02 01:03:08;;;;;;;14.00;6.53;;;13.70;99.90;;;;;;6169284;22;96216;-74
2023/10/02 01:05:42;;;;;;;15.20;6.47;;;13.70;99.90;;;;;;6147028;22;93031;-73
2023/10/02 01:11:04;;;;;;;13.32;6.90;;;13.70;99.90;;;;;;6148006;22;92259;-74
2023/10/02 01:13:32;;;;;;;15.07;6.45;;;13.70;99.90;;;;;;6147045;22;93650;-74
2023/10/02 01:16:00;;;;;;;18.00;7.32;;;13.60;99.90;;;;;;6184884;22;96928;-73
2023/10/02 01:18:29;;;;;;;16.85;7.03;;;13.60;99.90;;;;;;6192181;22;92833;-74
2023/10/02 01:21:00;;;;;;;20.13;7.28;;;13.60;99.90;;;;;;6146912;22;92383;-73
2023/10/02 01:23:31;;;;;;;16.63;7.47;;;13.60;99.90;;;;;;6146474;22;93714;-74
2023/10/02 01:26:00;;;;;;;18.70;6.97;;;13.60;99.90;;;;;;6147281;22;93592;-73
2023/10/02 01:28:32;;;;;;;21.40;7.40;;;13.60;99.90;;;;;;6168131;22;92372;-73
2023/10/02 01:31:24;;;;;;;14.90;7.18;;;13.60;99.90;;;;;;6162275;22;92531;-73
2023/10/02 01:33:45;;;;;;;16.05;6.80;;;13.60;99.90;;;;;;6146584;22;95124;-73
2023/10/02 01:36:11;;;;;;;15.65;6.47;;;13.60;99.90;;;;;;6144215;22;96836;-74
2023/10/02 01:38:37;;;;;;;18.40;6.50;;;13.60;99.90;;;;;;6147992;22;93578;-73
2023/10/02 01:41:05;;;;;;;15.52;6.85;;;13.60;99.90;;;;;;6147403;22;92549;-73
2023/10/02 01:44:04;;;;;;;23.17;7.53;;;13.60;99.90;;;;;;6146835;22;93425;-74
2023/10/02 01:46:30;;;;;;;20.85;7.38;;;13.60;99.90;;;;;;6140565;22;96569;-73
2023/10/02 01:48:56;;;;;;;17.77;7.25;;;13.60;99.90;;;;;;6146787;22;92242;-74
2023/10/02 01:51:25;;;;;;;15.38;6.70;;;13.50;99.90;;;;;;6146743;22;91783;-73
2023/10/02 01:53:56;;;;;;;19.75;7.28;;;13.60;99.90;;;;;;6147961;22;93463;-74
2023/10/02 01:56:27;;;;;;;19.08;7.25;;;13.50;99.90;;;;;;6175649;22;92908;-74
2023/10/02 01:58:54;;;;;;;18.80;7.63;;;13.50;99.90;;;;;;6172553;22;93368;-74
2023/10/02 02:01:22;;;;;;;13.93;6.80;;;13.50;99.90;;;;;;6146885;22;92617;-74
2023/10/02 02:03:55;;;;;;;15.52;6.63;;;13.50;99.90;;;;;;6145651;22;94158;-74
2023/10/02 02:06:22;;;;;;;15.43;7.07;;;13.50;99.90;;;;;;6145890;22;96343;-73
2023/10/02 02:08:52;;;;;;;19.88;6.30;;;13.50;99.90;;;;;;6147876;22;92784;-74
2023/10/02 02:11:23;;;;;;;16.58;6.55;;;13.50;99.90;;;;;;6147655;22;92800;-74
2023/10/02 02:13:58;;;;;;;16.80;6.53;;;13.50;99.90;;;;;;6147559;22;93234;-74
2023/10/02 02:16:33;;;;;;;18.17;6.47;;;13.50;99.90;;;;;;6167496;22;92801;-74
2023/10/02 02:19:01;;;;;;;18.00;6.72;;;13.50;99.90;;;;;;6160343;22;92846;-74
2023/10/02 02:21:28;;;;;;;19.17;7.35;;;13.50;99.90;;;;;;6147633;22;92535;-73
2023/10/02 02:24:03;;;;;;;15.57;6.78;;;13.50;99.90;;;;;;6148159;22;95425;-74
2023/10/02 02:26:47;;;;;;;17.63;7.63;;;13.50;99.90;;;;;;6202815;22;97309;-74
2023/10/02 02:29:23;;;;;;;16.80;7.40;;;13.40;99.90;;;;;;6178844;22;92091;-73
2023/10/02 02:31:50;;;;;;;15.98;6.50;;;13.50;99.90;;;;;;6152207;22;92534;-73
2023/10/02 02:34:16;;;;;;;14.40;7.07;;;13.40;99.90;;;;;;6148617;22;94002;-74
2023/10/02 02:36:46;;;;;;;17.33;6.40;;;13.50;99.90;;;;;;6158930;22;93413;-74
2023/10/02 02:39:16;;;;;;;20.58;8.00;;;13.50;99.90;;;;;;6171338;22;92514;-74
2023/10/02 02:41:48;;;;;;;24.67;7.40;;;13.40;99.90;;;;;;6147608;22;91461;-74
2023/10/02 02:47:07;;;;;;;22.20;8.45;;;13.40;99.90;;;;;;6150310;22;92588;-74
2023/10/02 02:49:48;;;;;;;18.00;7.55;;;13.40;99.90;;;;;;6147621;22;93544;-74
2023/10/02 02:52:26;;;;;;;22.15;8.13;;;13.50;99.90;;;;;;6166050;22;92363;-73
2023/10/02 02:55:04;;;;;;;23.83;8.27;;;13.50;99.90;;;;;;6163756;22;92969;-74
2023/10/02 02:57:34;;;;;;;21.90;8.38;;;13.50;99.90;;;;;;6155956;22;100068;-74
2023/10/02 03:02:53;;;;;;;24.13;9.68;;;13.50;99.90;;;;;;6145829;22;92614;-74
2023/10/02 03:05:21;;;;;;;28.10;9.43;;;13.50;99.90;;;;;;6148397;22;93163;-74
2023/10/02 03:07:56;;;;;;;24.08;8.90;;;13.50;99.90;;;;;;6146042;22;93644;-74
2023/10/02 03:10:23;;;;;;;21.38;9.43;;;13.50;99.90;;;;;;6148389;22;92414;-75
2023/10/02 03:12:48;;;;;;;21.90;8.10;;;13.50;99.90;;;;;;6147240;22;92537;-74
2023/10/02 03:15:17;;;;;;;17.05;7.53;;;13.50;99.90;;;;;;6151692;22;94463;-74
2023/10/02 03:17:49;;;;;;;19.45;8.05;;;13.50;99.90;;;;;;6202245;22;95849;-74
2023/10/02 03:20:24;;;;;;;20.40;7.70;;;13.50;99.90;;;;;;6178964;22;92393;-74
2023/10/02 03:22:55;;;;;;;15.98;7.35;;;13.50;99.90;;;;;;6152388;22;93229;-74
2023/10/02 03:25:28;;;;;;;14.25;6.45;;;13.50;99.90;;;;;;6148467;22;93763;-74
2023/10/02 03:27:57;;;;;;;24.33;8.40;;;13.50;99.90;;;;;;6161459;22;92552;-74
2023/10/02 03:30:38;;;;;;;18.98;7.80;;;13.50;99.90;;;;;;6169384;22;92507;-74
2023/10/02 03:33:17;;;;;;;27.58;8.68;;;13.50;99.90;;;;;;6147319;22;91513;-74
2023/10/02 03:36:10;;;;;;;19.80;8.15;;;13.50;99.90;;;;;;6146453;22;96545;-74
2023/10/02 03:39:23;;;;;;;26.70;8.88;;;13.40;99.90;;;;;;6177610;22;97100;-74
2023/10/02 03:41:44;;;;;;;18.45;7.60;;;13.40;99.90;;;;;;6177937;22;93169;-73
2023/10/02 03:44:09;;;;;;;21.52;8.70;;;13.40;99.90;;;;;;6146831;22;92461;-74
2023/10/02 03:46:40;;;;;;;17.42;7.57;;;13.40;99.90;;;;;;6147519;22;93830;-74
2023/10/02 03:49:06;;;;;;;21.48;8.40;;;13.40;99.90;;;;;;6144333;22;95345;-74
2023/10/02 03:51:40;;;;;;;19.70;8.80;;;13.40;99.90;;;;;;6147595;22;92517;-74
2023/10/02 03:54:17;;;;;;;18.35;7.47;;;13.40;99.90;;;;;;6146398;22;92959;-74
2023/10/02 03:57:02;;;;;;;17.75;7.90;;;13.40;99.90;;;;;;6172627;22;96463;-73
2023/10/02 03:59:31;;;;;;;24.27;8.13;;;13.40;99.90;;;;;;6178290;22;97490;-74
2023/10/02 04:02:24;;;;;;;21.70;8.35;;;13.40;99.90;;;;;;6147726;22;92121;-74
2023/10/02 04:04:46;;;;;;;22.02;8.50;;;13.40;99.90;;;;;;6147364;22;92816;-74
2023/10/02 04:07:12;;;;;;;20.30;8.68;;;13.40;99.90;;;;;;6165204;22;94420;-73
2023/10/02 04:09:38;;;;;;;23.52;8.57;;;13.40;99.90;;;;;;6165859;22;94198;-73
2023/10/02 04:12:06;;;;;;;20.80;7.90;;;13.40;99.90;;;;;;6147675;22;92746;-74
2023/10/02 04:14:33;;;;;;;17.35;7.97;;;13.40;99.90;;;;;;6147973;22;92426;-74
2023/10/02 04:20:01;;;;;;;21.33;8.70;;;13.40;99.90;;;;;;6153088;22;93397;-74
2023/10/02 04:22:26;;;;;;;21.17;10.02;;;13.40;99.90;;;;;;6148569;22;92438;-73
2023/10/02 04:25:06;;;;;;;25.15;9.20;;;13.40;99.90;;;;;;6162460;22;91688;-73
2023/10/02 04:30:29;;;;;;;19.77;8.25;;;13.40;99.90;;;;;;6148081;22;93010;-73
2023/10/02 04:32:59;;;;;;;28.92;9.45;;;13.40;99.90;;;;;;6146747;22;93083;-74
2023/10/02 04:38:09;;;;;;;23.02;9.32;;;13.50;99.90;;;;;;6146994;22;92570;-73
2023/10/02 04:40:49;;;;;;;21.42;9.38;;;13.50;99.90;;;;;;6146272;22;95000;-73
2023/10/02 04:45:48;;;;;;;21.83;9.43;;;13.50;99.90;;;;;;6147067;22;93037;-74
2023/10/02 04:48:16;;;;;;;18.50;9.07;;;13.40;99.90;;;;;;6170960;22;94997;-74
2023/10/02 04:50:47;;;;;;;20.30;7.93;;;13.40;99.90;;;;;;6148422;22;92933;-74
2023/10/02 04:55:43;;;;;;;22.80;9.70;;;13.30;99.90;;;;;;6172652;22;93097;-74
2023/10/02 04:58:20;;;;;;;23.33;10.10;;;13.40;99.90;;;;;;6183489;22;97448;-74
2023/10/02 05:03:31;;;;;;;23.00;8.77;;;13.40;99.90;;;;;;6148390;22;92177;-74
2023/10/02 05:05:58;;;;;;;26.73;9.23;;;13.40;99.90;;;;;;6149139;22;92457;-75
2023/10/02 05:08:40;;;;;;;23.95;9.70;;;13.30;99.90;;;;;;6177266;22;93684;-75
2023/10/02 05:11:26;;;;;;;21.50;8.85;;;13.30;99.90;;;;;;6149551;22;93456;-75
2023/10/02 05:16:33;;;;;;;26.08;9.75;;;13.30;99.90;;;;;;6168737;22;91898;-74
2023/10/02 05:19:01;;;;;;;21.38;8.88;;;13.30;99.90;;;;;;6162177;22;92372;-75
2023/10/02 05:21:38;;;;;;;23.63;9.73;;;13.30;99.90;;;;;;6147830;22;92867;-74
2023/10/02 05:24:12;;;;;;;20.75;8.45;;;13.30;99.90;;;;;;6151076;22;93856;-74
2023/10/02 05:26:41;;;;;;;23.30;9.88;;;13.30;99.90;;;;;;6180049;22;92058;-74
2023/10/02 05:29:18;;;;;;;24.20;10.05;;;13.30;99.90;;;;;;6149520;22;93010;-74
2023/10/02 05:31:48;;;;;;;23.23;8.60;;;13.20;99.90;;;;;;6148063;22;93610;-75
2023/10/02 05:34:22;;;;;;;25.38;9.82;;;13.20;99.90;;;;;;6167523;22;92393;-75
2023/10/02 05:37:11;;;;;;;25.92;10.40;;;13.20;99.90;;;;;;6178956;22;92691;-75
2023/10/02 05:39:40;;;;;;;116.18;19.08;;;13.20;99.90;;;;;;6190633;22;94609;-75
2023/10/02 05:42:15;;;;;;;44.50;12.05;;;13.20;99.90;;;;;;6146943;22;96117;-74
2023/10/02 05:44:45;;;;;;;36.92;11.35;;;13.20;99.90;;;;;;6172189;22;92830;-75
2023/10/02 05:47:15;;;;;;;39.15;10.80;;;13.20;99.90;;;;;;6148758;22;92494;-74
2023/10/02 05:49:47;;;;;;;29.40;10.10;;;13.20;99.90;;;;;;6147550;22;94229;-74
2023/10/02 05:52:14;;;;;;;31.85;9.68;;;13.20;99.90;;;;;;6147290;22;93733;-74
2023/10/02 05:54:47;;;;;;;23.63;9.50;;;13.20;99.90;;;;;;6148935;22;92762;-75
2023/10/02 05:57:13;;;;;;;27.23;10.25;;;13.20;99.90;;;;;;6153955;22;92461;-75
2023/10/02 05:59:44;;;;;;;24.58;8.68;;;13.20;99.90;;;;;;6177105;22;96225;-75
2023/10/02 06:02:11;;;;;;;24.75;9.50;;;13.20;99.90;;;;;;6149068;22;93285;-75
2023/10/02 06:04:37;;;;;;;22.65;8.43;;;13.20;99.90;;;;;;6148619;22;92193;-75
2023/10/02 06:07:08;;;;;;;23.98;9.23;;;13.20;99.90;;;;;;6191020;22;91694;-75
2023/10/02 06:09:43;;;;;;;27.92;9.38;;;13.20;99.90;;;;;;6179391;22;93167;-76
2023/10/02 06:12:12;;;;;;;29.73;10.30;;;13.20;99.90;;;;;;6176983;22;96211;-75
2023/10/02 06:14:45;;;;;;;29.13;9.05;;;13.20;99.90;;;;;;6178055;22;93385;-74
2023/10/02 06:17:11;;;;;;;24.52;9.75;;;13.30;99.90;;;;;;6146806;22;94989;-75
2023/10/02 06:19:44;;;;;;;28.08;10.23;;;13.30;99.90;;;;;;6169039;22;96524;-75
2023/10/02 06:22:13;;;;;;;26.63;10.48;;;13.30;99.90;;;;;;6183133;22;95015;-76
2023/10/02 06:24:40;;;;;;;21.88;9.95;;;13.40;99.90;;;;;;6147420;22;92607;-75
2023/10/02 06:27:12;;;;;;;28.20;9.48;;;13.40;99.90;;;;;;6148052;22;92226;-75
2023/10/02 06:29:39;;;;;;;29.23;10.27;;;13.40;99.90;;;;;;6147044;22;97051;-75
2023/10/02 06:32:09;;;;;;;37.83;10.27;;;13.50;99.90;;;;;;6175978;22;93833;-75
2023/10/02 06:34:39;;;;;;;52.25;12.07;;;13.60;99.90;;;;;;6152245;22;92618;-75
2023/10/02 06:37:16;;;;;;;56.63;13.13;;;13.60;99.90;;;;;;6145630;22;97552;-74
2023/10/02 06:40:06;;;;;;;50.75;13.98;;;13.70;99.90;;;;;;6158171;22;94030;-76
2023/10/02 06:42:32;;;;;;;57.92;11.90;;;13.70;99.90;;;;;;6166245;22;97420;-75
2023/10/02 06:45:01;;;;;;;46.63;12.48;;;13.80;99.90;;;;;;6147057;22;93448;-75
2023/10/02 06:47:34;;;;;;;44.25;11.95;;;13.80;99.90;;;;;;6147408;22;92721;-76
2023/10/02 06:50:03;;;;;;;;;;;13.90;99.90;;;;;;6149819;22;96665;-75
2023/10/02 06:52:33;;;;;;;100.50;17.33;;;14.00;99.90;;;;;;6149788;22;92140;-75
2023/10/02 06:55:01;;;;;;;72.05;14.88;;;14.00;99.90;;;;;;6146865;22;92649;-75
2023/10/02 06:57:28;;;;;;;44.92;11.93;;;14.10;99.90;;;;;;6157866;22;91349;-74
2023/10/02 06:59:54;;;;;;;28.17;12.02;;;14.20;99.90;;;;;;6176111;22;93679;-72
2023/10/02 07:02:26;;;;;;;57.63;11.82;;;14.30;99.90;;;;;;6149085;22;92705;-73
2023/10/02 07:04:53;;;;;;;38.65;12.55;;;14.40;99.90;;;;;;6148159;22;93498;-74
2023/10/02 07:07:27;;;;;;;38.00;11.35;;;14.50;99.90;;;;;;6147373;22;92627;-73
2023/10/02 07:10:07;;;;;;;;;;;14.60;99.90;;;;;;6147637;22;96577;-77
2023/10/02 07:12:43;;;;;;;42.13;12.20;;;14.70;99.90;;;;;;6160829;22;92615;-76
2023/10/02 07:15:22;;;;;;;35.17;12.70;;;14.90;99.90;;;;;;6175928;22;92429;-76
2023/10/02 07:17:48;;;;;;;37.53;12.63;;;15.00;99.90;;;;;;6150397;22;92491;-76
2023/10/02 07:20:15;;;;;;;32.80;12.38;;;15.10;99.90;;;;;;6149245;22;93355;-77
2023/10/02 07:22:43;;;;;;;38.47;13.75;;;15.20;99.90;;;;;;6172470;22;92854;-77
2023/10/02 07:25:09;;;;;;;34.75;12.13;;;15.40;99.90;;;;;;6160927;22;92503;-76
2023/10/02 07:27:37;;;;;;;34.50;12.27;;;15.50;99.90;;;;;;6148965;22;92307;-76
2023/10/02 07:30:04;;;;;;;32.95;11.68;;;15.60;99.90;;;;;;6151241;22;94403;-76
2023/10/02 07:32:34;;;;;;;30.05;11.57;;;15.80;99.90;;;;;;6204324;22;95307;-76
2023/10/02 07:35:09;;;;;;;38.15;12.93;;;16.00;99.90;;;;;;6151077;22;94198;-77
2023/10/02 07:37:36;;;;;;;30.73;12.18;;;16.10;99.90;;;;;;6148346;22;92372;-77
2023/10/02 07:40:02;;;;;;;32.50;11.02;;;16.30;99.90;;;;;;6163841;22;93059;-77
2023/10/02 07:42:29;;;;;;;28.70;11.70;;;16.40;99.90;;;;;;6193817;22;95987;-76
2023/10/02 07:45:11;;;;;;;32.20;12.10;;;16.50;99.90;;;;;;6146168;22;92463;-77
2023/10/02 07:47:55;;;;;;;30.63;11.35;;;16.70;99.90;;;;;;6144747;22;91404;-76
2023/10/02 07:50:33;;;;;;;27.70;10.98;;;16.80;99.90;;;;;;6201350;22;101191;-76
2023/10/02 07:53:04;;;;;;;30.17;11.88;;;17.00;99.90;;;;;;6147171;22;93168;-75
2023/10/02 07:55:33;;;;;;;34.63;12.60;;;17.10;99.90;;;;;;6145111;22;93393;-76
2023/10/02 07:58:00;;;;;;;30.48;11.88;;;17.20;99.90;;;;;;6160288;22;92924;-76
2023/10/02 08:00:38;;;;;;;25.00;10.93;;;17.40;99.90;;;;;;6166795;22;95383;-76
2023/10/02 08:03:29;;;;;;;30.20;11.68;;;17.50;99.90;;;;;;6146738;22;92981;-78
2023/10/02 08:05:51;;;;;;;32.35;12.10;;;17.60;99.90;;;;;;6145895;22;92742;-76
2023/10/02 08:08:21;;;;;;;29.40;12.00;;;17.70;99.90;;;;;;6145243;22;92645;-77
2023/10/02 08:10:56;;;;;;;30.63;12.95;;;17.90;99.90;;;;;;6193885;22;95479;-78
2023/10/02 08:13:32;;;;;;;30.63;11.40;;;18.00;99.90;;;;;;6166597;22;93047;-77
2023/10/02 08:16:01;;;;;;;25.50;11.85;;;18.10;99.90;;;;;;6174349;22;92798;-76
2023/10/02 08:18:27;;;;;;;28.55;11.80;;;18.20;99.90;;;;;;6165446;22;92976;-76
2023/10/02 08:20:55;;;;;;;29.08;11.38;;;18.30;99.90;;;;;;6144900;22;94615;-75
2023/10/02 08:23:23;;;;;;;28.20;12.10;;;18.50;99.90;;;;;;6146597;22;96857;-78
2023/10/02 08:26:05;;;;;;;28.10;11.40;;;18.50;99.90;;;;;;6171124;22;92680;-78
2023/10/02 08:28:36;;;;;;;27.08;11.38;;;18.70;99.90;;;;;;6146449;22;92545;-77
2023/10/02 08:31:02;;;;;;;25.95;11.35;;;18.80;99.90;;;;;;6146928;22;95860;-77
2023/10/02 08:33:31;;;;;;;29.65;12.00;;;18.90;99.90;;;;;;6146150;22;93313;-76
2023/10/02 08:35:58;;;;;;;30.05;12.25;;;19.10;99.90;;;;;;6145860;22;92647;-76
2023/10/02 08:38:26;;;;;;;30.15;11.88;;;19.20;99.90;;;;;;6176094;22;92246;-76
2023/10/02 08:41:00;;;;;;;28.92;12.38;;;19.30;99.90;;;;;;6147935;22;96813;-77
2023/10/02 08:43:44;;;;;;;28.42;11.70;;;19.50;99.90;;;;;;6144042;22;92798;-78
2023/10/02 08:46:21;;;;;;;30.13;12.15;;;19.60;99.90;;;;;;6184499;22;93656;-77
2023/10/02 08:48:54;;;;;;;28.05;11.68;;;19.70;99.90;;;;;;6174951;22;92622;-76
2023/10/02 08:51:48;;;;;;;29.38;11.93;;;19.90;99.90;;;;;;6194375;22;96026;-76
2023/10/02 08:54:15;;;;;;;26.92;11.13;;;20.10;99.90;;;;;;6145668;22;93449;-75
2023/10/02 08:56:44;;;;;;;33.88;12.65;;;20.20;99.90;;;;;;6145110;22;92610;-75
2023/10/02 08:59:26;;;;;;;34.30;12.85;;;20.30;99.90;;;;;;6143610;22;92807;-76
2023/10/02 09:02:23;;;;;;;28.38;12.63;;;20.50;99.90;;;;;;6193421;22;96426;-76
2023/10/02 09:04:52;;;;;;;31.23;11.57;;;20.60;99.90;;;;;;6160878;22;93760;-75
2023/10/02 09:07:45;;;;;;;31.02;12.48;;;20.70;99.90;;;;;;6154571;22;92476;-75
2023/10/02 09:10:18;;;;;;;29.43;12.47;;;20.90;99.90;;;;;;6142204;22;92453;-74
2023/10/02 09:12:50;;;;;;;28.08;11.95;;;21.00;99.90;;;;;;6140996;22;95929;-74
2023/10/02 09:15:30;;;;;;;24.63;10.85;;;21.10;99.90;;;;;;6143412;22;97484;-75
2023/10/02 09:17:57;;;;;;;30.13;12.48;;;21.30;99.90;;;;;;6144530;22;92411;-74
2023/10/02 09:20:38;;;;;;;26.15;12.02;;;21.40;99.70;;;;;;6172830;22;92412;-74
2023/10/02 09:23:08;;;;;;;35.53;12.77;;;21.50;99.30;;;;;;6147440;22;93724;-75
2023/10/02 09:25:37;;;;;;;27.08;11.65;;;21.70;98.40;;;;;;6142917;22;96224;-75
2023/10/02 09:28:13;;;;;;;28.42;13.02;;;21.80;98.40;;;;;;6143011;22;92625;-74
2023/10/02 09:30:41;;;;;;;29.80;12.57;;;21.80;98.10;;;;;;6145153;22;91665;-74
2023/10/02 09:33:18;;;;;;;31.75;12.52;;;21.90;98.20;;;;;;6143735;22;93601;-73
2023/10/02 09:35:50;;;;;;;26.73;11.40;;;22.10;99.00;;;;;;6143020;22;96216;-74
2023/10/02 09:38:17;;;;;;;29.75;12.10;;;22.20;98.70;;;;;;6167366;22;93431;-75
2023/10/02 09:41:02;;;;;;;31.40;12.82;;;22.30;98.20;;;;;;6167373;22;92407;-75
2023/10/02 09:43:37;;;;;;;30.88;12.38;;;22.50;97.20;;;;;;6178527;22;96935;-74
2023/10/02 09:46:15;;;;;;;28.95;12.80;;;22.60;97.10;;;;;;6143399;22;96227;-74
2023/10/02 09:49:03;;;;;;;28.50;12.50;;;22.70;97.90;;;;;;6143845;22;92309;-74
2023/10/02 09:52:23;;;;;;;27.77;12.13;;;22.80;97.00;;;;;;6144001;22;92624;-75
2023/10/02 09:55:16;;;;;;;31.50;13.98;;;22.90;96.90;;;;;;6143802;22;92571;-74
2023/10/02 09:57:50;;;;;;;31.03;12.70;;;23.10;97.10;;;;;;6142882;22;92764;-74
2023/10/02 10:00:36;;;;;;;31.38;12.60;;;23.30;95.50;;;;;;6142180;22;92785;-75
2023/10/02 10:03:23;;;;;;;42.92;15.05;;;23.40;95.80;;;;;;6142321;22;92476;-74
2023/10/02 10:06:08;;;;;;;29.70;12.73;;;23.60;96.10;;;;;;6142974;22;97671;-75
2023/10/02 10:11:42;;;;;;;26.60;12.25;;;23.80;94.70;;;;;;6176035;22;92704;-74
2023/10/02 10:14:36;;;;;;;33.38;13.18;;;23.90;94.70;;;;;;6147325;22;92652;-76
2023/10/02 10:17:13;;;;;;;27.60;12.68;;;24.10;94.00;;;;;;6141360;22;96629;-74
2023/10/02 10:20:08;;;;;;;34.70;13.45;;;24.30;93.90;;;;;;6143179;22;92596;-75
2023/10/02 10:22:39;;;;;;;30.40;13.48;;;24.50;93.50;;;;;;6145149;22;92316;-75
2023/10/02 10:25:32;;;;;;;30.08;12.63;;;24.70;93.10;;;;;;6144010;22;92042;-75
2023/10/02 10:28:05;;;;;;;30.23;13.20;;;25.00;92.90;;;;;;6144583;22;92596;-74
2023/10/02 10:35:37;;;;;;;27.67;13.00;;;25.90;91.60;;;;;;6148254;22;91986;-77
2023/10/02 10:38:26;;;;;;;29.58;12.90;;;26.10;92.60;;;;;;6147262;22;96400;-79
2023/10/02 10:41:06;;;;;;;26.73;12.40;;;26.30;89.20;;;;;;6148066;22;96069;-78
2023/10/02 10:43:46;;;;;;;30.95;13.20;;;26.20;86.40;;;;;;6149509;22;92634;-78
2023/10/02 10:46:31;;;;;;;33.53;13.32;;;26.30;87.30;;;;;;6149861;22;92511;-74
2023/10/02 10:49:08;;;;;;;24.77;12.48;;;26.30;88.30;;;;;;6150034;22;93188;-78
2023/10/02 10:51:43;;;;;;;28.20;13.63;;;26.40;85.80;;;;;;6150679;22;93633;-76
2023/10/02 10:54:12;;;;;;;30.15;13.80;;;26.50;87.90;;;;;;6147594;22;92443;-77
2023/10/02 10:56:44;;;;;;;30.73;14.13;;;26.50;86.60;;;;;;6148773;22;92497;-77
2023/10/02 10:59:25;;;;;;;25.67;12.27;;;26.60;88.00;;;;;;6149156;22;93748;-77
2023/10/02 11:02:13;;;;;;;34.22;13.77;;;26.60;86.90;;;;;;6148368;22;92155;-76
2023/10/02 11:04:49;;;;;;;34.17;12.93;;;26.80;85.50;;;;;;6148131;22;92320;-78
2023/10/02 11:07:37;;;;;;;27.60;12.40;;;26.90;83.40;;;;;;6149033;22;92466;-77
2023/10/02 11:10:15;;;;;;;30.85;12.63;;;26.80;83.10;;;;;;6149321;22;94222;-78
2023/10/02 11:12:59;;;;;;;32.53;13.57;;;26.80;83.60;;;;;;6148477;22;95521;-78
2023/10/02 11:16:07;;;;;;;28.33;13.60;;;26.80;84.10;;;;;;6151094;22;92620;-76
2023/10/02 11:18:26;;;;;;;34.80;14.07;;;26.90;82.60;;;;;;6146256;22;91386;-75
2023/10/02 11:20:57;;;;;;;31.05;14.63;;;26.90;83.80;;;;;;6149249;22;92876;-76
2023/10/02 11:23:40;;;;;;;25.52;13.02;;;26.90;84.00;;;;;;6179641;22;96946;-75
2023/10/02 11:28:58;;;;;;;27.17;12.85;;;27.10;84.60;;;;;;6147762;22;92564;-77
2023/10/02 11:31:32;;;;;;;33.75;13.40;;;27.40;85.20;;;;;;6169074;22;92758;-76
2023/10/02 11:34:08;;;;;;;30.67;14.27;;;27.50;82.50;;;;;;6176683;22;100428;-74
2023/10/02 11:36:37;;;;;;;33.17;14.32;;;27.70;83.10;;;;;;6167286;22;94250;-76
2023/10/02 11:39:16;;;;;;;29.23;13.68;;;27.80;81.20;;;;;;6147028;22;92730;-73
2023/10/02 11:41:43;;;;;;;27.95;12.13;;;28.00;79.40;;;;;;6204935;22;96566;-74
2023/10/02 11:44:12;;;;;;;36.40;13.98;;;28.00;79.90;;;;;;6153163;22;92692;-76
2023/10/02 11:46:41;;;;;;;27.08;12.82;;;28.10;82.10;;;;;;6148226;22;92688;-76
2023/10/02 11:49:10;;;;;;;31.60;14.43;;;28.10;79.00;;;;;;6164802;22;93295;-75
2023/10/02 11:51:36;;;;;;;28.15;12.90;;;28.10;81.20;;;;;;6170543;22;94278;-76
2023/10/02 11:54:05;;;;;;;26.25;12.98;;;28.10;79.70;;;;;;6149590;22;94258;-78
2023/10/02 11:56:32;;;;;;;27.95;13.48;;;28.30;80.70;;;;;;6175067;22;92708;-77
2023/10/02 11:58:58;;;;;;;26.13;12.82;;;28.40;79.30;;;;;;6149337;22;92549;-77
2023/10/02 12:01:26;;;;;;;30.77;14.18;;;28.50;81.90;;;;;;6146807;22;93143;-77
2023/10/02 12:03:57;;;;;;;30.48;13.38;;;28.70;79.90;;;;;;6145991;22;93246;-77
2023/10/02 12:06:27;;;;;;;31.05;14.18;;;28.80;79.10;;;;;;6146206;22;99784;-78
2023/10/02 12:08:57;;;;;;;27.70;13.80;;;28.90;79.20;;;;;;6170912;22;91693;-76
2023/10/02 12:11:26;;;;;;;30.67;13.55;;;29.10;78.00;;;;;;6146966;22;93634;-77
2023/10/02 12:13:53;;;;;;;25.30;12.77;;;29.00;77.40;;;;;;6147431;22;92547;-75
2023/10/02 12:16:21;;;;;;;27.80;12.75;;;29.10;78.00;;;;;;6157011;22;93118;-76
2023/10/02 12:18:48;;;;;;;28.52;13.00;;;29.20;76.70;;;;;;6146766;22;92467;-76
2023/10/02 12:21:14;;;;;;;24.70;12.63;;;29.30;73.90;;;;;;6145593;22;93880;-75
2023/10/02 12:23:44;;;;;;;27.50;12.98;;;29.30;74.30;;;;;;6146958;22;92613;-75
2023/10/02 12:26:12;;;;;;;26.80;13.65;;;29.30;74.40;;;;;;6147417;22;92177;-75
2023/10/02 12:28:38;;;;;;;31.55;13.98;;;29.30;71.80;;;;;;6144349;22;92586;-75
2023/10/02 12:31:14;;;;;;;27.30;13.63;;;29.30;73.40;;;;;;6160970;22;95660;-76
2023/10/02 12:33:42;;;;;;;24.08;12.18;;;29.40;73.20;;;;;;6167615;22;93035;-74
2023/10/02 12:36:33;;;;;;;26.42;13.18;;;29.40;71.20;;;;;;6142474;22;94411;-75
2023/10/02 12:38:59;;;;;;;28.17;13.02;;;29.40;72.90;;;;;;6143893;22;92122;-74
2023/10/02 12:41:30;;;;;;;29.08;13.57;;;29.50;71.50;;;;;;6144845;22;97366;-74
2023/10/02 12:43:57;;;;;;;28.23;13.98;;;29.60;72.90;;;;;;6168692;22;95142;-73
2023/10/02 12:46:29;;;;;;;24.95;12.48;;;29.70;70.50;;;;;;6145958;22;92683;-74
2023/10/02 12:49:01;;;;;;;27.45;14.00;;;29.80;70.60;;;;;;6143416;22;92455;-74
2023/10/02 12:51:28;;;;;;;25.50;13.02;;;30.00;68.80;;;;;;6152475;22;94240;-74
2023/10/02 12:53:54;;;;;;;27.58;13.65;;;29.90;67.90;;;;;;6174563;22;96948;-74
2023/10/02 12:56:21;;;;;;;28.10;14.73;;;30.00;66.50;;;;;;6146006;22;92387;-75
2023/10/02 12:58:54;;;;;;;26.58;13.80;;;30.00;66.80;;;;;;6169492;22;91633;-74
2023/10/02 13:01:27;;;;;;;;;;;30.00;66.50;;;;;;6163961;22;93460;-73
2023/10/02 13:03:54;;;;;;;30.88;14.52;;;30.00;68.20;;;;;;6178606;22;92372;-74
2023/10/02 13:06:22;;;;;;;31.17;13.05;;;30.10;68.50;;;;;;6175438;22;93449;-74
2023/10/02 13:08:48;;;;;;;29.38;13.02;;;30.30;68.50;;;;;;6176431;22;92686;-74
2023/10/02 13:11:19;;;;;;;28.27;13.75;;;30.50;71.20;;;;;;6177006;22;93306;-74
2023/10/02 13:13:47;;;;;;;27.95;13.88;;;30.70;68.80;;;;;;6175850;22;92488;-74
2023/10/02 13:16:16;;;;;;;27.40;13.15;;;30.90;68.20;;;;;;6157187;22;94135;-74
2023/10/02 13:18:45;;;;;;;28.35;14.52;;;31.20;68.60;;;;;;6145164;22;92359;-73
2023/10/02 13:21:14;;;;;;;27.95;13.82;;;31.40;67.40;;;;;;6144320;22;92484;-74
2023/10/02 13:23:40;;;;;;;31.65;13.68;;;31.60;64.20;;;;;;6145912;22;93711;-74
2023/10/02 13:26:10;;;;;;;26.52;13.68;;;31.90;60.50;;;;;;6145714;22;92631;-74
2023/10/02 13:28:37;;;;;;;25.50;13.30;;;32.10;61.60;;;;;;6146386;22;92172;-74
2023/10/02 13:31:12;;;;;;;26.27;12.98;;;32.10;58.30;;;;;;6144762;22;93409;-74
2023/10/02 13:33:57;;;;;;;26.42;13.32;;;32.30;58.10;;;;;;6153667;22;96131;-73
2023/10/02 13:36:24;;;;;;;28.95;12.55;;;32.40;59.50;;;;;;6170139;22;92573;-74
2023/10/02 13:38:51;;;;;;;27.05;13.60;;;32.50;58.10;;;;;;6145796;22;92513;-74
2023/10/02 13:41:18;;;;;;;26.23;13.18;;;32.70;58.30;;;;;;6145665;22;93540;-74
2023/10/02 13:43:45;;;;;;;25.95;13.23;;;32.80;56.60;;;;;;6169157;22;93035;-74